createdAt,value
2022-12-01T00:02:56.148Z,22.80
2022-12-01T00:07:59.211Z,22.75
2022-12-01T00:13:03.507Z,20.63
2022-12-01T00:18:07.795Z,18.75
2022-12-01T00:23:09.210Z,20.98
2022-12-01T00:28:10.647Z,23.52
2022-12-01T00:33:12.182Z,20.48
2022-12-01T00:38:13.954Z,23.88
2022-12-01T00:43:15.337Z,24.05
2022-12-01T00:48:16.875Z,22.23
2022-12-01T00:53:18.593Z,26.13
2022-12-01T00:58:20.396Z,22.33
2022-12-01T01:03:21.835Z,23.50
2022-12-01T01:08:23.301Z,23.13
2022-12-01T01:13:24.733Z,23.33
2022-12-01T01:18:26.295Z,22.10
2022-12-01T01:23:27.713Z,22.85
2022-12-01T01:28:30.427Z,23.40
2022-12-01T01:33:31.977Z,24.00
2022-12-01T01:38:34.384Z,24.00
2022-12-01T01:43:49.364Z,23.77
2022-12-01T01:49:01.052Z,21.65
2022-12-01T01:54:06.493Z,23.45
2022-12-01T01:59:08.120Z,21.42
2022-12-01T02:04:09.555Z,23.52
2022-12-01T02:09:12.592Z,24.63
2022-12-01T02:14:37.778Z,23.90
2022-12-01T02:20:14.528Z,26.15
2022-12-01T02:25:21.078Z,23.77
2022-12-01T02:30:28.349Z,23.65
2022-12-01T02:35:46.325Z,21.58
2022-12-01T02:40:56.631Z,21.60
2022-12-01T02:46:26.062Z,21.52
2022-12-01T02:51:34.406Z,24.25
2022-12-01T02:56:35.867Z,20.60
2022-12-01T03:01:50.488Z,22.92
2022-12-01T03:07:16.864Z,24.67
2022-12-01T03:12:21.441Z,25.33
2022-12-01T03:17:29.097Z,25.52
2022-12-01T03:22:39.944Z,23.63
2022-12-01T03:28:13.529Z,27.95
2022-12-01T03:33:13.894Z,26.58
2022-12-01T03:38:22.572Z,27.08
2022-12-01T03:43:29.675Z,28.08
2022-12-01T03:48:31.676Z,27.73
2022-12-01T03:53:43.691Z,26.45
2022-12-01T03:58:48.926Z,24.33
2022-12-01T04:03:50.333Z,26.13
2022-12-01T04:08:51.883Z,24.70
2022-12-01T04:13:53.274Z,23.08
2022-12-01T04:18:54.674Z,22.15
2022-12-01T04:24:02.021Z,27.30
2022-12-01T04:29:06.463Z,26.52
2022-12-01T04:34:08.002Z,23.88
2022-12-01T04:39:09.449Z,26.70
2022-12-01T04:44:11.512Z,25.63
2022-12-01T04:49:13.007Z,27.00
2022-12-01T04:54:15.445Z,26.17
2022-12-01T04:59:16.896Z,28.33
2022-12-01T05:04:18.476Z,24.65
2022-12-01T05:09:21.304Z,23.83
2022-12-01T05:14:22.791Z,23.48
2022-12-01T05:19:43.108Z,27.55
2022-12-01T05:24:44.549Z,23.95
2022-12-01T05:29:46.363Z,25.15
2022-12-01T05:34:47.970Z,24.48
2022-12-01T05:39:49.575Z,23.80
2022-12-01T05:44:51.153Z,24.13
2022-12-01T05:49:52.530Z,23.27
2022-12-01T05:54:53.891Z,24.48
2022-12-01T05:59:55.568Z,24.75
2022-12-01T06:04:57.184Z,24.55
2022-12-01T06:09:58.659Z,23.80
2022-12-01T06:15:00.424Z,23.55
2022-12-01T06:20:03.854Z,24.55
2022-12-01T06:25:06.006Z,25.23
2022-12-01T06:30:08.586Z,24.15
2022-12-01T06:35:13.017Z,23.55
2022-12-01T06:40:14.901Z,24.35
2022-12-01T06:45:16.534Z,25.42
2022-12-01T06:50:18.180Z,25.65
2022-12-01T06:55:20.956Z,28.77
2022-12-01T07:00:22.959Z,28.40
2022-12-01T07:05:26.563Z,26.17
2022-12-01T07:10:28.195Z,28.02
2022-12-01T07:15:30.002Z,28.75
2022-12-01T07:20:31.485Z,26.20
2022-12-01T07:25:33.103Z,28.40
2022-12-01T07:30:34.619Z,25.95
2022-12-01T07:35:36.029Z,26.50
2022-12-01T07:40:37.435Z,25.58
2022-12-01T07:45:38.903Z,22.33
2022-12-01T07:50:40.337Z,26.65
2022-12-01T07:55:48.488Z,27.80
2022-12-01T08:00:49.947Z,26.60
2022-12-01T08:05:58.834Z,26.55
2022-12-01T08:11:02.698Z,26.80
2022-12-01T08:16:05.499Z,26.23
2022-12-01T08:21:12.278Z,29.30
2022-12-01T08:26:16.891Z,27.63
2022-12-01T08:31:21.306Z,26.75
2022-12-01T08:36:23.479Z,26.30
2022-12-01T08:41:25.292Z,28.95
2022-12-01T08:46:36.566Z,30.65
2022-12-01T08:51:37.972Z,29.25
2022-12-01T08:56:44.487Z,28.63
2022-12-01T09:01:54.979Z,31.20
2022-12-01T09:06:57.977Z,28.10
2022-12-01T09:11:59.368Z,30.55
2022-12-01T09:17:00.895Z,30.42
2022-12-01T09:22:02.805Z,31.75
2022-12-01T09:27:05.403Z,30.63
2022-12-01T09:32:06.798Z,29.08
2022-12-01T09:37:08.260Z,24.83
2022-12-01T09:42:15.925Z,24.00
2022-12-01T09:47:24.539Z,29.77
2022-12-01T09:52:29.258Z,31.38
2022-12-01T09:57:36.936Z,28.75
2022-12-01T10:02:43.177Z,30.13
2022-12-01T10:07:51.417Z,30.85
2022-12-01T10:12:53.090Z,29.00
2022-12-01T10:18:22.018Z,27.08
2022-12-01T10:23:33.958Z,27.88
2022-12-01T10:28:45.296Z,27.15
2022-12-01T10:34:15.027Z,29.30
2022-12-01T10:39:34.826Z,26.20
2022-12-01T10:44:36.504Z,24.70
2022-12-01T10:49:40.359Z,26.20
2022-12-01T10:54:42.934Z,25.17
2022-12-01T11:00:21.473Z,27.63
2022-12-01T11:05:41.205Z,24.95
2022-12-01T11:10:48.995Z,24.88
2022-12-01T11:16:01.908Z,24.73
2022-12-01T11:21:26.300Z,25.20
2022-12-01T11:26:31.750Z,25.17
2022-12-01T11:31:50.550Z,23.90
2022-12-01T11:36:56.564Z,26.48
2022-12-01T11:42:01.183Z,24.43
2022-12-01T11:47:24.931Z,22.75
2022-12-01T11:52:32.040Z,22.40
2022-12-01T12:03:01.778Z,21.13
2022-12-01T12:08:15.834Z,19.80
2022-12-01T12:13:45.256Z,19.50
2022-12-01T12:19:33.697Z,19.33
2022-12-01T12:25:22.982Z,21.33
2022-12-01T12:30:31.924Z,21.20
2022-12-01T12:36:05.620Z,23.52
2022-12-01T12:41:43.131Z,23.85
2022-12-01T12:52:16.567Z,24.83
2022-12-01T12:57:25.717Z,23.52
2022-12-01T13:02:37.614Z,24.05
2022-12-01T13:08:05.754Z,21.65
2022-12-01T13:13:38.370Z,22.90
2022-12-01T13:18:48.784Z,22.25
2022-12-01T13:23:52.355Z,23.17
2022-12-01T13:28:56.639Z,23.73
2022-12-01T13:34:03.677Z,24.25
2022-12-01T13:39:15.100Z,22.73
2022-12-01T13:44:31.453Z,22.55
2022-12-01T13:49:46.582Z,22.60
2022-12-01T13:55:09.724Z,21.60
2022-12-01T14:00:29.768Z,21.92
2022-12-01T14:05:40.380Z,22.58
2022-12-01T14:10:58.456Z,21.30
2022-12-01T14:16:02.526Z,21.38
2022-12-01T14:21:07.638Z,22.95
2022-12-01T14:26:23.263Z,19.23
2022-12-01T14:31:33.930Z,23.77
2022-12-01T14:36:46.844Z,21.42
2022-12-01T14:41:53.239Z,21.05
2022-12-01T14:47:01.753Z,19.83
2022-12-01T14:52:13.265Z,21.50
2022-12-01T14:57:20.239Z,22.55
2022-12-01T15:02:21.779Z,19.50
2022-12-01T15:07:23.279Z,20.00
2022-12-01T15:12:27.687Z,20.25
2022-12-01T15:17:37.703Z,22.48
2022-12-01T15:22:41.115Z,21.45
2022-12-01T15:27:43.659Z,21.35
2022-12-01T15:32:45.899Z,21.92
2022-12-01T15:37:48.665Z,21.38
2022-12-01T15:43:04.939Z,24.17
2022-12-01T15:48:15.383Z,24.13
2022-12-01T15:53:23.259Z,25.05
2022-12-01T15:58:27.432Z,24.25
2022-12-01T16:03:29.548Z,23.83
2022-12-01T16:08:31.189Z,22.85
2022-12-01T16:14:03.583Z,26.42
2022-12-01T16:19:07.957Z,26.55
2022-12-01T16:24:15.418Z,26.20
2022-12-01T16:29:22.879Z,23.88
2022-12-01T16:34:45.173Z,28.33
2022-12-01T16:39:46.337Z,25.02
2022-12-01T16:44:53.456Z,28.42
2022-12-01T16:49:55.718Z,28.77
2022-12-01T16:55:00.003Z,27.85
2022-12-01T17:00:01.823Z,26.33
2022-12-01T17:05:03.423Z,26.55
2022-12-01T17:10:05.701Z,25.38
2022-12-01T17:15:08.872Z,26.17
2022-12-01T17:20:11.107Z,24.55
2022-12-01T17:25:15.780Z,25.63
2022-12-01T17:30:19.276Z,26.52
2022-12-01T17:35:22.553Z,27.30
2022-12-01T17:40:27.571Z,25.55
2022-12-01T17:45:29.219Z,23.23
2022-12-01T17:50:30.943Z,36.05
2022-12-01T17:55:33.511Z,27.90
2022-12-01T18:00:35.577Z,35.95
2022-12-01T18:05:38.769Z,26.55
2022-12-01T18:10:41.492Z,26.58
2022-12-01T18:15:43.393Z,27.15
2022-12-01T18:20:48.117Z,35.78
2022-12-01T18:25:49.663Z,29.40
2022-12-01T18:30:51.503Z,27.45
2022-12-01T18:35:54.188Z,25.50
2022-12-01T18:40:59.780Z,28.25
2022-12-01T18:46:03.371Z,26.90
2022-12-01T18:51:11.015Z,29.25
2022-12-01T18:56:15.190Z,26.17
2022-12-01T19:01:23.431Z,26.77
2022-12-01T19:06:26.374Z,25.80
2022-12-01T19:11:29.060Z,26.02
2022-12-01T19:16:33.345Z,26.40
2022-12-01T19:21:44.158Z,26.13
2022-12-01T19:26:46.332Z,28.73
2022-12-01T19:31:49.172Z,26.02
2022-12-01T19:36:53.583Z,29.02
2022-12-01T19:41:57.721Z,28.92
2022-12-01T19:46:59.309Z,27.70
2022-12-01T19:52:06.308Z,26.55
2022-12-01T19:57:07.812Z,27.40
2022-12-01T20:02:11.904Z,28.33
2022-12-01T20:07:13.537Z,29.25
2022-12-01T20:12:15.276Z,29.50
2022-12-01T20:17:17.473Z,29.70
2022-12-01T20:22:23.371Z,32.85
2022-12-01T20:27:25.123Z,34.55
2022-12-01T20:32:27.083Z,35.88
2022-12-01T20:37:30.183Z,33.33
2022-12-01T20:42:31.678Z,36.05
2022-12-01T20:47:36.852Z,37.05
2022-12-01T20:52:41.548Z,37.30
2022-12-01T20:57:45.371Z,35.95
2022-12-01T21:02:50.245Z,37.15
2022-12-01T21:07:53.308Z,38.40
2022-12-01T21:13:37.684Z,38.55
2022-12-01T21:19:06.911Z,38.85
2022-12-01T21:24:09.215Z,41.40
2022-12-01T21:29:21.883Z,35.55
2022-12-01T21:34:27.903Z,37.03
2022-12-01T21:39:30.500Z,38.13
2022-12-01T21:44:38.030Z,36.53
2022-12-01T21:49:39.827Z,41.95
2022-12-01T21:54:43.823Z,41.47
2022-12-01T21:59:45.329Z,38.97
2022-12-01T22:04:47.427Z,39.90
2022-12-01T22:09:52.482Z,35.97
2022-12-01T22:15:03.012Z,40.05
2022-12-01T22:20:21.049Z,40.25
2022-12-01T22:25:26.321Z,38.63
2022-12-01T22:30:28.514Z,40.50
2022-12-01T22:35:36.079Z,41.40
2022-12-01T22:40:48.797Z,40.67
2022-12-01T22:45:59.957Z,39.47
2022-12-01T22:51:21.990Z,35.97
2022-12-01T22:56:39.673Z,41.50
2022-12-01T23:01:48.277Z,44.45
2022-12-01T23:06:58.699Z,40.63
2022-12-01T23:12:28.853Z,41.33
2022-12-01T23:17:32.943Z,40.08
2022-12-01T23:22:34.328Z,42.13
2022-12-01T23:27:37.906Z,38.72
2022-12-01T23:32:39.797Z,41.72
2022-12-01T23:37:42.848Z,42.08
2022-12-01T23:42:44.281Z,44.33
2022-12-01T23:47:46.163Z,46.65
2022-12-01T23:52:48.435Z,43.88
2022-12-01T23:57:50.219Z,49.42
